Time;durP1;ratioP1;P1;durP2;ratioP2;P2;SDS_P1;SDS_P2;PMS_P1;PMS_P2;Temp;Humidity;BMP_temperature;BMP_pressure;BME280_temperature;BME280_humidity;BME280_pressure;Samples;Min_cycle;Max_cycle;Signal;HPM_P1;HPM_P2
2023/05/14 00:00:16;;;;;;;0.10;0.10;;;;;;;11.01;92.62;100801.28;5018830;28;20219;-78
2023/05/14 00:02:41;;;;;;;0.00;0.00;;;;;;;11.09;91.75;100807.97;5016623;28;20196;-78
2023/05/14 00:05:07;;;;;;;26.73;2.83;;;;;;;11.12;90.84;100801.06;5017510;28;20180;-78
2023/05/14 00:07:33;;;;;;;0.00;0.00;;;;;;;11.05;90.48;100804.22;5018580;28;20185;-79
2023/05/14 00:09:59;;;;;;;0.00;0.00;;;;;;;11.01;90.11;100800.50;5019161;28;20180;-79
2023/05/14 00:12:25;;;;;;;0.00;0.00;;;;;;;11.01;90.53;100806.75;5018202;28;20198;-78
2023/05/14 00:14:51;;;;;;;0.00;0.00;;;;;;;10.99;91.15;100813.63;5019025;28;20871;-78
2023/05/14 00:17:17;;;;;;;0.00;0.00;;;;;;;11.00;90.79;100807.88;5019944;28;20180;-79
2023/05/14 00:19:43;;;;;;;0.00;0.00;;;;;;;11.05;90.17;100809.69;5018448;28;20176;-78
2023/05/14 00:22:09;;;;;;;0.90;0.90;;;;;;;11.06;89.73;100800.38;5019081;28;20208;-79
2023/05/14 00:24:34;;;;;;;0.00;0.00;;;;;;;10.99;89.17;100792.59;5018863;28;20234;-79
2023/05/14 00:27:00;;;;;;;0.00;0.00;;;;;;;10.96;89.73;100787.72;5018918;28;20263;-79
2023/05/14 00:29:25;;;;;;;0.60;0.60;;;;;;;10.96;90.05;100793.19;5018798;28;20184;-80
2023/05/14 00:31:51;;;;;;;0.00;0.00;;;;;;;10.85;89.59;100791.78;5018544;28;20729;-79
2023/05/14 00:34:16;;;;;;;0.00;0.00;;;;;;;10.73;90.22;100792.28;5018199;28;20180;-79
2023/05/14 00:36:42;;;;;;;0.00;0.00;;;;;;;10.76;90.97;100788.13;5018039;28;20533;-79
2023/05/14 00:39:07;;;;;;;0.00;0.00;;;;;;;10.91;90.99;100787.03;5018199;28;20180;-79
2023/05/14 00:41:33;;;;;;;0.00;0.00;;;;;;;10.93;90.38;100785.59;5019018;28;20204;-79
2023/05/14 00:43:58;;;;;;;0.00;0.00;;;;;;;10.64;90.28;100772.25;5034247;28;20176;-79
2023/05/14 00:46:24;;;;;;;0.00;0.00;;;;;;;10.62;90.58;100774.47;5017915;28;20183;-79
2023/05/14 00:48:49;;;;;;;0.00;0.00;;;;;;;10.85;90.87;100780.03;5018891;28;20180;-79
2023/05/14 00:51:16;;;;;;;0.00;0.00;;;;;;;10.96;90.47;100779.50;5018391;28;20203;-78
2023/05/14 00:53:41;;;;;;;0.00;0.00;;;;;;;11.00;90.47;100777.81;5017621;28;20185;-79
2023/05/14 00:56:07;;;;;;;0.00;0.00;;;;;;;10.72;90.90;100771.56;5033916;28;20196;-79
2023/05/14 00:58:33;;;;;;;0.00;0.00;;;;;;;10.57;91.03;100782.78;5018948;28;20210;-79
2023/05/14 01:00:58;;;;;;;0.00;0.00;;;;;;;10.64;91.78;100785.09;5034140;28;20200;-79
2023/05/14 01:03:24;;;;;;;0.00;0.00;;;;;;;10.87;91.96;100786.03;5001617;28;20169;-78
2023/05/14 01:06:04;;;;;;;0.00;0.00;;;;;;;10.93;91.68;100782.06;5011302;28;20189;-78
2023/05/14 01:08:35;;;;;;;0.00;0.00;;;;;;;10.54;91.77;100768.91;5019179;28;20184;-78
2023/05/14 01:11:12;;;;;;;0.00;0.00;;;;;;;10.45;92.39;100779.72;5024523;28;20180;-79
2023/05/14 01:13:56;;;;;;;0.00;0.00;;;;;;;10.62;92.65;100784.59;5025284;28;20183;-79
2023/05/14 01:16:27;;;;;;;0.00;0.00;;;;;;;10.63;92.48;100781.56;5020639;28;20183;-78
2023/05/14 01:18:53;;;;;;;0.00;0.00;;;;;;;10.67;92.96;100785.28;5021142;28;20606;-79
2023/05/14 01:21:39;;;;;;;0.00;0.00;;;;;;;10.70;91.68;100781.97;5023176;28;20215;-79
2023/05/14 01:24:06;;;;;;;0.53;0.33;;;;;;;10.54;91.42;100780.63;5021777;28;20187;-79
2023/05/14 01:26:32;;;;;;;0.00;0.00;;;;;;;10.52;92.34;100771.94;5021690;28;20548;-79
2023/05/14 01:29:12;;;;;;;0.00;0.00;;;;;;;10.53;93.25;100773.56;5022319;28;20176;-78
2023/05/14 01:31:41;;;;;;;0.00;0.00;;;;;;;10.49;93.89;100779.94;5021193;28;20200;-78
2023/05/14 01:34:08;;;;;;;0.00;0.00;;;;;;;10.50;94.49;100781.56;5021943;28;20187;-78
2023/05/14 01:36:34;;;;;;;0.63;0.60;;;;;;;10.40;94.27;100768.88;5018814;28;20572;-79
2023/05/14 01:39:00;;;;;;;0.00;0.00;;;;;;;10.29;94.93;100773.75;5019089;28;20256;-78
2023/05/14 01:41:27;;;;;;;0.10;0.10;;;;;;;10.24;96.10;100778.47;5017718;28;20227;-78
2023/05/14 01:43:53;;;;;;;0.00;0.00;;;;;;;10.30;96.70;100780.03;5018473;28;20192;-78
2023/05/14 01:46:19;;;;;;;0.10;0.10;;;;;;;10.22;96.84;100772.50;5017904;28;20280;-78
2023/05/14 01:48:44;;;;;;;0.20;0.20;;;;;;;10.17;97.35;100769.84;5018984;28;20268;-78
2023/05/14 01:51:10;;;;;;;0.00;0.00;;;;;;;10.21;98.31;100771.69;5020897;28;20643;-79
2023/05/14 01:53:35;;;;;;;0.00;0.00;;;;;;;10.26;99.12;100770.78;5025473;28;20180;-78
2023/05/14 01:56:01;;;;;;;0.00;0.00;;;;;;;10.34;99.81;100770.09;5022920;28;20188;-78
2023/05/14 01:58:26;;;;;;;0.00;0.00;;;;;;;10.31;99.52;100774.25;5020093;28;20279;-77
2023/05/14 02:00:51;;;;;;;0.00;0.00;;;;;;;10.26;99.35;100763.41;5020294;28;20231;-79
2023/05/14 02:03:16;;;;;;;0.00;0.00;;;;;;;10.17;98.89;100764.38;5020306;28;20208;-78
2023/05/14 02:05:42;;;;;;;0.00;0.00;;;;;;;10.11;99.06;100759.00;5019702;28;20527;-78
2023/05/14 02:08:07;;;;;;;0.00;0.00;;;;;;;10.11;100.00;100760.91;5020857;28;20220;-79
2023/05/14 02:10:32;;;;;;;0.00;0.00;;;;;;;10.14;100.00;100761.16;5020724;28;20268;-79
2023/05/14 02:12:58;;;;;;;0.00;0.00;;;;;;;10.18;100.00;100757.81;5020448;28;20204;-78
2023/05/14 02:15:23;;;;;;;0.00;0.00;;;;;;;10.03;100.00;100756.16;5020196;28;20211;-78
2023/05/14 02:17:48;;;;;;;0.10;0.10;;;;;;;9.63;100.00;100750.28;5019308;28;20211;-78
2023/05/14 02:20:14;;;;;;;0.10;0.10;;;;;;;9.21;100.00;100754.72;5020187;28;20176;-79
2023/05/14 02:22:44;;;;;;;0.20;0.20;;;;;;;9.35;100.00;100754.81;5020206;28;20223;-78
2023/05/14 02:25:09;;;;;;;0.00;0.00;;;;;;;9.46;100.00;100750.81;5019761;28;20183;-78
2023/05/14 02:27:34;;;;;;;0.00;0.00;;;;;;;8.88;100.00;100745.66;5017525;28;20582;-78
2023/05/14 02:30:00;;;;;;;0.00;0.00;;;;;;;8.76;100.00;100747.16;5016851;28;20180;-79
2023/05/14 02:32:26;;;;;;;0.20;0.20;;;;;;;8.80;100.00;100757.19;5015171;28;20283;-78
2023/05/14 02:34:52;;;;;;;0.00;0.00;;;;;;;8.84;100.00;100744.63;5017309;28;20378;-78
2023/05/14 02:37:17;;;;;;;0.00;0.00;;;;;;;8.97;100.00;100748.53;5016871;28;20597;-78
2023/05/14 02:39:42;;;;;;;0.00;0.00;;;;;;;8.80;100.00;100743.56;5018105;28;20187;-78
2023/05/14 02:42:07;;;;;;;0.00;0.00;;;;;;;8.71;100.00;100744.53;5015377;28;20759;-78
2023/05/14 02:44:33;;;;;;;0.00;0.00;;;;;;;8.83;100.00;100743.00;5015827;28;20184;-78
2023/05/14 02:46:58;;;;;;;0.00;0.00;;;;;;;8.85;100.00;100746.25;5016867;28;20176;-78
2023/05/14 02:49:23;;;;;;;0.00;0.00;;;;;;;9.14;100.00;100743.41;5017305;28;20207;-78
2023/05/14 02:51:49;;;;;;;0.00;0.00;;;;;;;9.34;100.00;100745.00;5017055;28;20242;-78
2023/05/14 02:54:15;;;;;;;0.00;0.00;;;;;;;9.30;100.00;100754.06;5016821;28;20197;-77
2023/05/14 02:56:40;;;;;;;0.00;0.00;;;;;;;9.21;100.00;100753.91;5018025;28;20224;-77
2023/05/14 02:59:06;;;;;;;0.00;0.00;;;;;;;9.14;100.00;100748.03;5019871;28;20815;-78
2023/05/14 03:01:31;;;;;;;0.00;0.00;;;;;;;9.00;100.00;100744.41;5018721;28;20287;-78
2023/05/14 03:03:56;;;;;;;0.00;0.00;;;;;;;8.84;100.00;100750.06;5014935;28;20189;-78
2023/05/14 03:06:22;;;;;;;0.00;0.00;;;;;;;9.14;100.00;100754.28;5006486;28;20184;-78
2023/05/14 03:08:47;;;;;;;0.00;0.00;;;;;;;9.32;100.00;100760.03;5019129;28;20208;-77
2023/05/14 03:11:12;;;;;;;0.00;0.00;;;;;;;9.44;100.00;100755.75;5016020;28;20204;-77
2023/05/14 03:13:38;;;;;;;0.00;0.00;;;;;;;9.53;100.00;100755.88;5017049;28;20592;-78
2023/05/14 03:16:03;;;;;;;0.00;0.00;;;;;;;9.59;100.00;100749.25;5016537;28;20180;-78
2023/05/14 03:18:29;;;;;;;1.03;1.03;;;;;;;9.66;100.00;100755.13;5016590;28;20222;-78
2023/05/14 03:20:55;;;;;;;0.00;0.00;;;;;;;9.60;100.00;100748.16;5016768;28;20192;-77
2023/05/14 03:23:20;;;;;;;0.00;0.00;;;;;;;9.59;100.00;100753.91;5016090;28;20181;-78
2023/05/14 03:25:45;;;;;;;0.00;0.00;;;;;;;9.61;100.00;100743.50;5016751;28;20184;-79
2023/05/14 03:28:11;;;;;;;0.00;0.00;;;;;;;9.36;100.00;100736.53;5017360;28;20203;-79
2023/05/14 03:30:36;;;;;;;0.00;0.00;;;;;;;9.23;100.00;100736.16;5017615;28;20187;-79
2023/05/14 03:33:01;;;;;;;0.00;0.00;;;;;;;9.31;100.00;100742.06;5018676;28;20204;-78
2023/05/14 03:35:27;;;;;;;0.00;0.00;;;;;;;9.26;100.00;100737.50;5017980;28;20207;-79
2023/05/14 03:37:52;;;;;;;0.00;0.00;;;;;;;8.87;100.00;100735.84;5017695;28;20184;-78
2023/05/14 03:40:17;;;;;;;0.00;0.00;;;;;;;8.91;100.00;100746.97;5018089;28;20180;-78
2023/05/14 03:42:43;;;;;;;0.00;0.00;;;;;;;8.84;100.00;100749.25;5015697;28;20200;-78
2023/05/14 03:45:08;;;;;;;0.50;0.50;;;;;;;8.99;100.00;100740.06;5015932;28;20670;-78
2023/05/14 03:47:34;;;;;;;0.00;0.00;;;;;;;8.88;100.00;100739.38;5015380;28;20177;-78
2023/05/14 03:49:59;;;;;;;1.17;0.50;;;;;;;8.20;100.00;100734.97;5015765;28;20259;-77
2023/05/14 03:52:24;;;;;;;0.33;0.33;;;;;;;7.88;100.00;100740.19;5015048;28;20206;-77
2023/05/14 03:54:50;;;;;;;0.00;0.00;;;;;;;7.89;100.00;100736.38;5015149;28;20216;-77
2023/05/14 03:57:15;;;;;;;0.00;0.00;;;;;;;7.82;100.00;100728.56;5016487;28;20193;-78
2023/05/14 03:59:40;;;;;;;0.00;0.00;;;;;;;8.01;100.00;100731.38;5017257;28;20543;-77
2023/05/14 04:02:06;;;;;;;0.10;0.10;;;;;;;8.12;100.00;100729.38;5016802;28;20235;-78
2023/05/14 04:04:31;;;;;;;0.20;0.20;;;;;;;7.97;100.00;100733.06;5016895;28;20606;-79
2023/05/14 04:06:56;;;;;;;0.00;0.00;;;;;;;7.84;100.00;100726.38;5016817;28;20184;-78
2023/05/14 04:09:22;;;;;;;0.00;0.00;;;;;;;8.04;100.00;100731.59;5017378;28;20184;-78
2023/05/14 04:11:47;;;;;;;0.00;0.00;;;;;;;8.13;100.00;100729.06;5015323;28;20208;-77
2023/05/14 04:14:13;;;;;;;0.00;0.00;;;;;;;8.03;100.00;100735.41;5015396;28;20581;-79
2023/05/14 04:16:38;;;;;;;0.10;0.10;;;;;;;8.10;100.00;100737.81;5013055;28;20188;-78
2023/05/14 04:19:04;;;;;;;0.00;0.00;;;;;;;8.21;100.00;100739.31;5015131;28;20180;-78
2023/05/14 04:21:30;;;;;;;0.00;0.00;;;;;;;8.32;100.00;100738.13;5014145;28;20258;-78
2023/05/14 04:23:55;;;;;;;0.00;0.00;;;;;;;8.36;100.00;100749.25;5014674;28;20562;-78
2023/05/14 04:26:20;;;;;;;0.77;0.77;;;;;;;8.59;100.00;100748.47;5014803;28;20591;-77
2023/05/14 04:28:46;;;;;;;0.40;0.40;;;;;;;8.79;100.00;100741.94;5012246;28;20659;-78
2023/05/14 04:31:11;;;;;;;0.00;0.00;;;;;;;9.03;100.00;100743.81;5014308;28;20160;-78
2023/05/14 04:33:37;;;;;;;0.00;0.00;;;;;;;9.14;100.00;100748.03;5025936;28;20203;-77
2023/05/14 04:36:03;;;;;;;0.00;0.00;;;;;;;9.25;100.00;100747.56;5020606;28;20188;-78
2023/05/14 04:38:30;;;;;;;0.00;0.00;;;;;;;9.45;100.00;100743.75;5017723;28;20242;-79
2023/05/14 04:40:56;;;;;;;0.00;0.00;;;;;;;9.53;100.00;100739.53;5016505;28;20200;-79
2023/05/14 04:43:21;;;;;;;0.00;0.00;;;;;;;9.32;100.00;100743.69;5018256;28;20184;-78
2023/05/14 04:45:46;;;;;;;0.00;0.00;;;;;;;9.23;100.00;100746.25;5012535;28;20255;-78
2023/05/14 04:48:11;;;;;;;0.00;0.00;;;;;;;9.28;100.00;100748.91;4998244;28;20177;-78
2023/05/14 04:50:37;;;;;;;0.00;0.00;;;;;;;9.32;100.00;100749.13;5011186;28;20176;-77
2023/05/14 04:53:02;;;;;;;0.00;0.00;;;;;;;9.41;100.00;100756.38;5012620;28;20204;-77
2023/05/14 04:55:28;;;;;;;0.00;0.00;;;;;;;9.54;100.00;100752.84;5011579;28;20180;-78
2023/05/14 04:57:53;;;;;;;0.00;0.00;;;;;;;9.68;100.00;100754.84;5028504;28;20941;-78
2023/05/14 05:00:20;;;;;;;0.00;0.00;;;;;;;9.81;100.00;100751.34;5012889;28;20184;-77
2023/05/14 05:02:46;;;;;;;0.00;0.00;;;;;;;9.97;100.00;100749.97;5012970;28;20204;-78
2023/05/14 05:05:11;;;;;;;0.00;0.00;;;;;;;10.08;100.00;100754.16;5012922;28;20176;-77
2023/05/14 05:07:36;;;;;;;0.00;0.00;;;;;;;10.12;100.00;100757.88;5012598;28;20184;-77
2023/05/14 05:10:02;;;;;;;0.00;0.00;;;;;;;10.20;100.00;100756.41;5012628;28;20191;-77
2023/05/14 05:12:29;;;;;;;0.10;0.10;;;;;;;10.24;100.00;100757.44;5012585;28;20303;-77
2023/05/14 05:14:56;;;;;;;0.00;0.00;;;;;;;10.29;100.00;100751.09;5013102;28;20187;-77
2023/05/14 05:17:21;;;;;;;0.00;0.00;;;;;;;10.39;100.00;100756.34;5012670;28;20215;-78
2023/05/14 05:19:47;;;;;;;0.00;0.00;;;;;;;10.41;100.00;100751.38;5012898;28;20642;-77
2023/05/14 05:22:12;;;;;;;0.20;0.20;;;;;;;10.50;100.00;100746.84;5011486;28;20863;-77
2023/05/14 05:24:37;;;;;;;0.00;0.00;;;;;;;10.62;100.00;100752.63;5012290;28;20172;-77
2023/05/14 05:27:04;;;;;;;0.00;0.00;;;;;;;10.64;100.00;100753.13;5012594;28;20184;-77
2023/05/14 05:29:29;;;;;;;0.00;0.00;;;;;;;10.60;100.00;100751.31;5013028;28;20173;-78
2023/05/14 05:31:55;;;;;;;0.17;0.17;;;;;;;10.61;100.00;100750.19;5012598;28;20671;-77
2023/05/14 05:34:20;;;;;;;0.00;0.00;;;;;;;10.76;100.00;100752.63;5012807;28;20176;-77
2023/05/14 05:36:45;;;;;;;0.00;0.00;;;;;;;10.78;100.00;100747.66;5012058;28;20677;-77
2023/05/14 05:39:11;;;;;;;0.27;0.27;;;;;;;10.89;100.00;100760.00;5013024;28;20176;-78
2023/05/14 05:41:36;;;;;;;0.10;0.10;;;;;;;10.97;100.00;100758.44;5011202;28;20680;-77
2023/05/14 05:44:01;;;;;;;0.60;0.60;;;;;;;11.22;100.00;100754.34;5012606;28;20190;-77
2023/05/14 05:46:26;;;;;;;0.00;0.00;;;;;;;11.31;100.00;100747.84;5010586;28;20275;-77
2023/05/14 05:48:52;;;;;;;0.00;0.00;;;;;;;11.40;100.00;100745.19;5011230;28;20184;-78
2023/05/14 05:51:17;;;;;;;0.23;0.23;;;;;;;11.49;100.00;100748.00;5010916;28;20250;-78
2023/05/14 05:53:42;;;;;;;0.60;0.60;;;;;;;11.50;100.00;100750.41;5012350;28;20189;-77
2023/05/14 05:56:08;;;;;;;0.73;0.73;;;;;;;11.66;100.00;100744.56;5011671;28;20211;-78
2023/05/14 05:58:33;;;;;;;0.00;0.00;;;;;;;11.76;100.00;100753.34;5012631;28;20190;-78
2023/05/14 06:00:59;;;;;;;0.00;0.00;;;;;;;12.01;100.00;100749.19;5012204;28;20215;-78
2023/05/14 06:03:24;;;;;;;0.00;0.00;;;;;;;12.02;99.67;100748.09;5011980;28;20187;-78
2023/05/14 06:05:51;;;;;;;0.10;0.10;;;;;;;12.02;99.33;100761.78;5013502;28;20212;-78
2023/05/14 06:08:16;;;;;;;0.00;0.00;;;;;;;12.09;97.55;100759.38;5014287;28;20231;-78
2023/05/14 06:10:42;;;;;;;0.00;0.00;;;;;;;12.16;96.86;100761.69;5015237;28;20646;-78
2023/05/14 06:13:07;;;;;;;0.97;0.97;;;;;;;12.34;96.27;100766.13;5013814;28;20204;-78
2023/05/14 06:15:32;;;;;;;0.00;0.00;;;;;;;12.45;96.55;100762.00;5014253;28;20194;-77
2023/05/14 06:17:58;;;;;;;0.53;0.53;;;;;;;12.60;96.45;100762.69;5016252;28;20176;-77
2023/05/14 06:20:23;;;;;;;1.07;0.97;;;;;;;12.68;95.46;100765.44;5016349;28;20173;-77
2023/05/14 06:22:48;;;;;;;0.00;0.00;;;;;;;12.66;95.30;100764.97;5015909;28;20208;-78
2023/05/14 06:25:14;;;;;;;0.00;0.00;;;;;;;12.66;95.15;100759.47;5015022;28;20180;-78
2023/05/14 06:27:39;;;;;;;0.23;0.23;;;;;;;12.70;95.42;100765.13;5016078;28;20651;-78
2023/05/14 06:30:05;;;;;;;0.00;0.00;;;;;;;12.74;95.90;100768.88;5016146;28;20191;-78
2023/05/14 06:32:31;;;;;;;0.30;0.30;;;;;;;12.77;95.88;100765.50;5015673;28;20287;-78
2023/05/14 06:34:56;;;;;;;0.17;0.17;;;;;;;12.80;95.61;100773.06;5016003;28;20621;-78
2023/05/14 06:37:21;;;;;;;0.07;0.07;;;;;;;12.90;95.19;100758.28;5013341;28;20184;-78
2023/05/14 06:39:48;;;;;;;0.80;0.80;;;;;;;13.02;94.31;100758.47;5016524;28;20669;-78
2023/05/14 06:42:17;;;;;;;0.57;0.57;;;;;;;12.88;92.78;100753.09;5014307;28;20204;-77
2023/05/14 06:44:42;;;;;;;0.67;0.20;;;;;;;12.83;94.43;100758.72;5015621;28;20260;-78
2023/05/14 06:47:08;;;;;;;0.20;0.20;;;;;;;12.79;94.50;100760.50;5014417;28;20465;-78
2023/05/14 06:49:34;;;;;;;0.70;0.70;;;;;;;12.64;94.57;100752.69;5016076;28;20210;-78
2023/05/14 06:51:59;;;;;;;0.10;0.10;;;;;;;12.46;96.25;100755.38;5030497;28;20200;-78
2023/05/14 06:54:25;;;;;;;0.00;0.00;;;;;;;12.50;97.06;100759.09;5015748;28;20191;-78
2023/05/14 06:56:50;;;;;;;0.57;0.57;;;;;;;12.55;97.81;100752.66;4999090;28;20199;-78
2023/05/14 06:59:15;;;;;;;0.00;0.00;;;;;;;12.59;96.72;100756.41;4999501;28;20213;-77
2023/05/14 07:01:41;;;;;;;0.37;0.37;;;;;;;12.70;95.92;100759.66;5015635;28;20208;-78
2023/05/14 07:04:06;;;;;;;0.20;0.20;;;;;;;12.98;96.62;100765.69;5030572;28;20181;-78
2023/05/14 07:06:31;;;;;;;0.00;0.00;;;;;;;13.05;95.47;100758.63;5045829;28;20187;-78
2023/05/14 07:08:59;;;;;;;0.20;0.20;;;;;;;13.30;95.68;100750.75;5027819;28;20195;-79
2023/05/14 07:11:25;;;;;;;0.00;0.00;;;;;;;13.42;95.13;100750.91;5035622;28;20211;-79
2023/05/14 07:13:50;;;;;;;1.10;1.10;;;;;;;13.62;93.81;100757.72;5014817;28;20267;-78
2023/05/14 07:16:16;;;;;;;1.47;0.87;;;;;;;13.80;93.21;100756.56;5013268;28;20188;-78
2023/05/14 07:18:41;;;;;;;1.80;1.23;;;;;;;13.74;90.64;100735.06;5015545;28;20231;-78
2023/05/14 07:21:06;;;;;;;0.50;0.50;;;;;;;13.88;90.15;100746.69;4999773;28;20204;-78
2023/05/14 07:23:34;;;;;;;1.53;1.00;;;;;;;13.92;89.58;100737.47;5013499;28;20262;-78
2023/05/14 07:26:00;;;;;;;2.07;1.90;;;;;;;14.14;89.72;100736.44;5015032;28;20177;-78
2023/05/14 07:28:25;;;;;;;1.63;1.57;;;;;;;14.27;88.72;100737.38;5015955;28;20184;-78
2023/05/14 07:30:50;;;;;;;1.13;1.13;;;;;;;14.11;87.37;100728.84;4994453;28;20176;-79
2023/05/14 07:33:16;;;;;;;1.07;1.07;;;;;;;14.14;86.67;100730.13;5023159;28;20219;-79
2023/05/14 07:35:41;;;;;;;0.30;0.30;;;;;;;14.28;87.51;100731.53;5021702;28;20208;-80
2023/05/14 07:38:06;;;;;;;0.10;0.10;;;;;;;14.32;87.60;100733.63;5021955;28;20187;-79
2023/05/14 07:40:32;;;;;;;0.17;0.17;;;;;;;14.49;88.11;100725.34;5038248;28;20184;-80
2023/05/14 07:42:57;;;;;;;0.27;0.27;;;;;;;14.75;88.36;100738.94;5021894;28;20192;-78
2023/05/14 07:45:22;;;;;;;0.67;0.47;;;;;;;14.92;88.56;100732.56;5021431;28;20191;-78
2023/05/14 07:47:50;;;;;;;0.00;0.00;;;;;;;15.03;88.43;100733.78;5022607;28;20181;-79
2023/05/14 07:50:17;;;;;;;0.00;0.00;;;;;;;15.28;89.77;100730.03;5022022;28;20176;-80
2023/05/14 07:52:42;;;;;;;1.27;1.27;;;;;;;15.31;88.45;100732.09;5038395;28;20193;-79
2023/05/14 07:55:08;;;;;;;0.90;0.90;;;;;;;15.25;86.48;100710.63;5028995;28;20268;-79
2023/05/14 07:57:33;;;;;;;0.70;0.70;;;;;;;15.05;86.05;100713.06;5030097;28;20192;-80
2023/05/14 07:59:59;;;;;;;0.00;0.00;;;;;;;15.09;86.07;100722.25;5023025;28;20181;-79
2023/05/14 08:02:24;;;;;;;8.87;1.73;;;;;;;15.21;85.18;100704.19;5021628;28;20296;-80
2023/05/14 08:04:50;;;;;;;1.67;1.60;;;;;;;15.32;84.67;100706.19;5018569;28;20191;-80
2023/05/14 08:07:16;;;;;;;0.70;0.70;;;;;;;15.44;84.40;100720.00;5020054;28;20183;-79
2023/05/14 08:09:41;;;;;;;0.93;0.93;;;;;;;15.45;83.76;100707.84;5016816;28;20176;-79
2023/05/14 08:12:07;;;;;;;0.37;0.37;;;;;;;15.44;83.83;100713.69;5018408;28;20204;-78
2023/05/14 08:14:32;;;;;;;0.03;0.03;;;;;;;15.27;84.44;100711.91;5020108;28;20405;-81
2023/05/14 08:16:57;;;;;;;0.00;0.00;;;;;;;15.23;85.45;100719.22;5016841;28;20235;-81
2023/05/14 08:19:23;;;;;;;0.30;0.30;;;;;;;15.15;85.96;100707.13;5018375;28;20184;-79
2023/05/14 08:21:48;;;;;;;0.00;0.00;;;;;;;14.97;87.52;100729.63;5017453;28;20263;-78
2023/05/14 08:24:14;;;;;;;0.47;0.47;;;;;;;15.08;88.71;100722.59;5017149;28;20234;-84
2023/05/14 08:26:39;;;;;;;0.80;0.80;;;;;;;15.25;88.44;100716.94;4997854;28;20185;-78
2023/05/14 08:29:04;;;;;;;0.00;0.00;;;;;;;14.91;88.72;100720.75;5019239;28;20199;-78
2023/05/14 08:31:29;;;;;;;0.13;0.13;;;;;;;15.02;89.06;100721.16;5021999;28;20706;-78
2023/05/14 08:33:55;;;;;;;0.00;0.00;;;;;;;14.98;88.67;100721.03;5012202;28;20213;-87
2023/05/14 08:36:20;;;;;;;0.00;0.00;;;;;;;15.00;89.53;100713.22;4992889;28;20737;-83
2023/05/14 08:38:46;;;;;;;0.00;0.00;;;;;;;15.32;89.79;100716.38;5004960;28;20192;-84
2023/05/14 08:41:12;;;;;;;0.00;0.00;;;;;;;15.59;88.73;100704.00;5012051;28;20204;-84
2023/05/14 08:43:47;;;;;;;1.03;1.03;;;;;;;15.83;82.86;100690.34;5013027;28;20195;-84
2023/05/14 08:46:14;;;;;;;0.20;0.20;;;;;;;15.89;80.59;100682.66;5013298;28;20195;-83
2023/05/14 08:48:41;;;;;;;0.93;0.93;;;;;;;15.96;79.38;100675.47;5013949;28;20199;-82
2023/05/14 08:51:07;;;;;;;0.00;0.00;;;;;;;16.02;79.18;100682.34;5022434;28;20181;-82
2023/05/14 08:53:33;;;;;;;0.30;0.20;;;;;;;15.97;74.10;100654.22;5003783;28;20180;-78
2023/05/14 08:56:00;;;;;;;0.77;0.77;;;;;;;16.11;73.36;100651.13;5020921;28;20223;-79
2023/05/14 08:58:27;;;;;;;1.10;1.10;;;;;;;16.33;74.32;100662.50;5020646;28;20214;-79
2023/05/14 09:00:53;;;;;;;1.30;1.20;;;;;;;16.45;72.51;100650.66;5021448;28;20204;-79
2023/05/14 09:03:20;;;;;;;0.20;0.20;;;;;;;16.54;70.75;100639.50;5022451;28;20204;-79
2023/05/14 09:05:47;;;;;;;0.00;0.00;;;;;;;16.69;72.35;100651.81;5020673;28;20650;-78
2023/05/14 09:08:12;;;;;;;0.30;0.30;;;;;;;16.84;72.34;100651.09;5020288;28;20180;-78
2023/05/14 09:10:39;;;;;;;0.53;0.53;;;;;;;16.50;69.74;100624.81;5016630;28;20181;-78
2023/05/14 09:13:04;;;;;;;0.77;0.77;;;;;;;16.51;72.18;100648.50;5015446;28;20220;-79
2023/05/14 09:15:31;;;;;;;0.87;0.87;;;;;;;16.56;70.98;100637.22;5013450;28;20203;-79
2023/05/14 09:17:57;;;;;;;0.00;0.00;;;;;;;16.84;71.75;100638.09;5015525;28;20593;-79
2023/05/14 09:20:23;;;;;;;0.73;0.73;;;;;;;16.81;68.82;100618.69;5015894;28;20188;-78
2023/05/14 09:22:53;;;;;;;0.17;0.17;;;;;;;16.93;68.63;100618.66;5017180;28;20258;-79
2023/05/14 09:25:18;;;;;;;0.30;0.30;;;;;;;17.18;69.32;100625.69;5016283;28;20181;-78
2023/05/14 09:27:48;;;;;;;0.07;0.07;;;;;;;17.15;68.56;100623.63;5017103;28;20180;-79
2023/05/14 09:30:14;;;;;;;0.20;0.20;;;;;;;17.25;68.47;100625.91;5013645;28;20565;-78
2023/05/14 09:32:43;;;;;;;0.67;0.67;;;;;;;17.21;68.34;100622.25;5011312;28;20228;-78
2023/05/14 09:35:16;;;;;;;2.93;1.30;;;;;;;17.16;66.55;100611.44;5011477;28;20184;-78
2023/05/14 09:37:42;;;;;;;0.87;0.87;;;;;;;17.01;66.70;100609.41;5011328;28;20183;-78
2023/05/14 09:40:09;;;;;;;0.90;0.87;;;;;;;17.22;67.45;100615.56;5013827;28;20207;-78
2023/05/14 09:42:34;;;;;;;0.60;0.60;;;;;;;17.34;64.76;100591.78;5030663;28;20216;-78
2023/05/14 09:45:00;;;;;;;0.73;0.70;;;;;;;17.37;62.13;100583.63;5015467;28;20203;-78
2023/05/14 09:47:25;;;;;;;1.20;1.20;;;;;;;17.59;62.88;100595.22;5015336;28;20519;-78
2023/05/14 09:49:51;;;;;;;0.20;0.20;;;;;;;17.62;64.62;100600.81;5014442;28;20172;-78
2023/05/14 09:52:19;;;;;;;0.77;0.77;;;;;;;17.39;61.90;100575.78;5013980;28;20287;-78
2023/05/14 09:54:45;;;;;;;0.50;0.50;;;;;;;17.48;64.76;100606.78;5015333;28;20654;-78
2023/05/14 09:57:11;;;;;;;0.33;0.33;;;;;;;17.92;65.15;100601.22;5015334;28;20195;-78
2023/05/14 09:59:36;;;;;;;0.73;0.73;;;;;;;17.89;63.00;100576.25;5015785;28;20176;-78
2023/05/14 10:02:04;;;;;;;0.70;0.70;;;;;;;17.75;63.95;100585.81;5015377;28;20215;-78
2023/05/14 10:04:30;;;;;;;14.47;8.63;;;;;;;17.55;62.53;100565.53;5014468;28;20234;-78
2023/05/14 10:06:56;;;;;;;7.77;7.07;;;;;;;17.47;61.82;100571.22;5016154;28;20541;-78
2023/05/14 10:09:25;;;;;;;0.20;0.20;;;;;;;17.67;62.78;100580.44;5015494;28;20204;-78
2023/05/14 10:11:52;;;;;;;0.03;0.03;;;;;;;17.76;60.99;100556.19;5032054;28;20212;-78
2023/05/14 10:14:28;;;;;;;0.20;0.20;;;;;;;18.35;63.19;100580.91;5016269;28;20231;-78
2023/05/14 10:16:57;;;;;;;0.47;0.47;;;;;;;18.22;61.17;100553.72;5014921;28;20198;-78
2023/05/14 10:19:24;;;;;;;1.00;0.93;;;;;;;18.54;62.04;100563.56;4999359;28;20239;-78
2023/05/14 10:21:55;;;;;;;1.47;1.37;;;;;;;18.53;56.65;100531.53;5014717;28;20203;-78
2023/05/14 10:24:22;;;;;;;2.33;1.03;;;;;;;18.46;57.29;100525.84;5021946;28;20184;-80
2023/05/14 10:26:47;;;;;;;0.93;0.93;;;;;;;18.10;56.49;100522.28;5025482;28;20245;-80
2023/05/14 10:29:13;;;;;;;6.33;0.77;;;;;;;18.13;57.62;100529.06;5025992;28;20185;-79
2023/05/14 10:31:53;;;;;;;2.27;2.07;;;;;;;17.94;57.36;100521.53;5025635;28;20278;-80
2023/05/14 10:34:39;;;;;;;2.13;2.03;;;;;;;17.94;57.52;100527.06;5039552;28;20187;-80
2023/05/14 10:37:21;;;;;;;0.30;0.30;;;;;;;18.02;57.38;100517.75;5040502;28;20188;-79
2023/05/14 10:39:50;;;;;;;1.07;1.00;;;;;;;18.42;57.60;100531.31;5026233;28;20173;-79
2023/05/14 10:42:21;;;;;;;0.63;0.63;;;;;;;18.16;56.55;100517.28;5025104;28;20215;-80
2023/05/14 10:44:57;;;;;;;1.03;0.70;;;;;;;18.18;58.33;100530.72;5025056;28;20181;-80
2023/05/14 10:47:27;;;;;;;0.20;0.20;;;;;;;18.24;59.17;100538.41;5023432;28;20203;-80
2023/05/14 10:49:56;;;;;;;0.40;0.40;;;;;;;18.31;58.76;100533.03;5039756;28;20192;-80
2023/05/14 10:52:22;;;;;;;0.77;0.73;;;;;;;18.41;56.13;100507.56;5023651;28;20689;-80
2023/05/14 10:54:50;;;;;;;1.60;0.90;;;;;;;18.40;53.32;100491.34;5022252;28;20184;-80
2023/05/14 10:57:17;;;;;;;2.37;2.17;;;;;;;18.56;52.03;100488.50;5023391;28;20199;-79
2023/05/14 10:59:43;;;;;;;2.73;2.13;;;;;;;18.37;52.42;100490.09;5019763;28;20188;-78
2023/05/14 11:02:24;;;;;;;0.40;0.40;;;;;;;18.58;52.85;100497.22;5020996;28;20702;-80
2023/05/14 11:04:58;;;;;;;2.27;1.73;;;;;;;18.97;53.91;100507.16;5024092;28;20180;-79
2023/05/14 11:07:27;;;;;;;0.80;0.80;;;;;;;18.67;52.81;100503.38;5024227;28;20176;-80
2023/05/14 11:10:04;;;;;;;1.97;1.20;;;;;;;18.78;52.45;100498.03;5024403;28;20184;-78
2023/05/14 11:12:31;;;;;;;0.60;0.60;;;;;;;18.91;53.06;100502.25;5023557;28;20192;-80
2023/05/14 11:14:58;;;;;;;0.90;0.87;;;;;;;18.95;53.13;100503.13;5014717;28;20181;-79
2023/05/14 11:17:25;;;;;;;0.20;0.20;;;;;;;18.92;52.95;100501.88;5048074;28;20188;-80
2023/05/14 11:19:51;;;;;;;0.83;0.47;;;;;;;18.86;52.14;100491.50;5033420;28;20179;-79